sensor_id;sensor_type;location;lat;lon;timestamp;P1;durP1;ratioP1;P2;durP2;ratioP2
81651;SDS011;71061;55.714;37.794;2023-08-08T00:02:20;4.85;;;3.10;;
81651;SDS011;71061;55.714;37.794;2023-08-08T00:04:46;4.38;;;2.67;;
81651;SDS011;71061;55.714;37.794;2023-08-08T00:07:11;4.65;;;3.15;;
81651;SDS011;71061;55.714;37.794;2023-08-08T00:09:37;4.60;;;2.75;;
81651;SDS011;71061;55.714;37.794;2023-08-08T00:12:03;4.40;;;2.95;;
81651;SDS011;71061;55.714;37.794;2023-08-08T00:14:29;4.70;;;2.90;;
81651;SDS011;71061;55.714;37.794;2023-08-08T00:16:54;6.80;;;3.17;;
81651;SDS011;71061;55.714;37.794;2023-08-08T00:19:20;7.00;;;3.30;;
81651;SDS011;71061;55.714;37.794;2023-08-08T00:21:46;4.30;;;2.70;;
81651;SDS011;71061;55.714;37.794;2023-08-08T00:24:12;5.00;;;3.25;;
81651;SDS011;71061;55.714;37.794;2023-08-08T00:26:37;6.40;;;3.33;;
81651;SDS011;71061;55.714;37.794;2023-08-08T00:29:03;5.75;;;3.05;;
81651;SDS011;71061;55.714;37.794;2023-08-08T00:31:29;5.05;;;3.20;;
81651;SDS011;71061;55.714;37.794;2023-08-08T00:33:54;5.20;;;2.88;;
81651;SDS011;71061;55.714;37.794;2023-08-08T00:36:20;4.10;;;2.85;;
81651;SDS011;71061;55.714;37.794;2023-08-08T00:38:45;7.45;;;3.60;;
81651;SDS011;71061;55.714;37.794;2023-08-08T00:41:11;4.85;;;3.00;;
81651;SDS011;71061;55.714;37.794;2023-08-08T00:43:37;7.13;;;3.58;;
81651;SDS011;71061;55.714;37.794;2023-08-08T00:46:04;5.82;;;2.67;;
81651;SDS011;71061;55.714;37.794;2023-08-08T00:48:30;6.97;;;2.65;;
81651;SDS011;71061;55.714;37.794;2023-08-08T00:50:56;7.18;;;3.67;;
81651;SDS011;71061;55.714;37.794;2023-08-08T00:53:22;6.00;;;2.72;;
81651;SDS011;71061;55.714;37.794;2023-08-08T00:55:51;5.15;;;3.25;;
81651;SDS011;71061;55.714;37.794;2023-08-08T00:58:19;5.55;;;3.35;;
81651;SDS011;71061;55.714;37.794;2023-08-08T01:00:45;4.70;;;3.03;;
81651;SDS011;71061;55.714;37.794;2023-08-08T01:03:11;5.47;;;3.33;;
81651;SDS011;71061;55.714;37.794;2023-08-08T01:05:40;9.30;;;3.15;;
81651;SDS011;71061;55.714;37.794;2023-08-08T01:08:09;7.20;;;3.28;;
81651;SDS011;71061;55.714;37.794;2023-08-08T01:10:37;6.57;;;3.45;;
81651;SDS011;71061;55.714;37.794;2023-08-08T01:13:07;5.13;;;3.22;;
81651;SDS011;71061;55.714;37.794;2023-08-08T01:15:35;4.32;;;2.80;;
81651;SDS011;71061;55.714;37.794;2023-08-08T01:18:03;5.22;;;3.20;;
81651;SDS011;71061;55.714;37.794;2023-08-08T01:20:31;5.78;;;3.35;;
81651;SDS011;71061;55.714;37.794;2023-08-08T01:23:05;6.40;;;2.80;;
81651;SDS011;71061;55.714;37.794;2023-08-08T01:25:37;5.43;;;2.90;;
81651;SDS011;71061;55.714;37.794;2023-08-08T01:28:04;7.68;;;3.30;;
81651;SDS011;71061;55.714;37.794;2023-08-08T01:30:30;5.65;;;3.13;;
81651;SDS011;71061;55.714;37.794;2023-08-08T01:32:56;5.07;;;3.20;;
81651;SDS011;71061;55.714;37.794;2023-08-08T01:35:22;5.50;;;2.85;;
81651;SDS011;71061;55.714;37.794;2023-08-08T01:37:51;5.85;;;3.35;;
81651;SDS011;71061;55.714;37.794;2023-08-08T01:40:18;5.82;;;2.85;;
81651;SDS011;71061;55.714;37.794;2023-08-08T01:42:46;4.93;;;3.40;;
81651;SDS011;71061;55.714;37.794;2023-08-08T01:45:13;7.45;;;3.33;;
81651;SDS011;71061;55.714;37.794;2023-08-08T01:47:40;5.80;;;2.70;;
81651;SDS011;71061;55.714;37.794;2023-08-08T01:50:06;4.75;;;2.65;;
81651;SDS011;71061;55.714;37.794;2023-08-08T01:52:34;8.18;;;3.05;;
81651;SDS011;71061;55.714;37.794;2023-08-08T01:55:02;7.63;;;3.58;;
81651;SDS011;71061;55.714;37.794;2023-08-08T01:57:29;6.90;;;2.95;;
81651;SDS011;71061;55.714;37.794;2023-08-08T01:59:55;5.43;;;2.65;;
81651;SDS011;71061;55.714;37.794;2023-08-08T02:02:21;7.75;;;2.95;;
81651;SDS011;71061;55.714;37.794;2023-08-08T02:04:46;4.72;;;2.47;;
81651;SDS011;71061;55.714;37.794;2023-08-08T02:07:12;5.20;;;2.58;;
81651;SDS011;71061;55.714;37.794;2023-08-08T02:09:38;5.78;;;2.65;;
81651;SDS011;71061;55.714;37.794;2023-08-08T02:12:04;5.55;;;2.92;;
81651;SDS011;71061;55.714;37.794;2023-08-08T02:14:31;4.63;;;2.55;;
81651;SDS011;71061;55.714;37.794;2023-08-08T02:16:57;5.72;;;3.05;;
81651;SDS011;71061;55.714;37.794;2023-08-08T02:19:23;6.47;;;2.92;;
81651;SDS011;71061;55.714;37.794;2023-08-08T02:21:48;5.25;;;2.85;;
81651;SDS011;71061;55.714;37.794;2023-08-08T02:24:17;4.80;;;2.90;;
81651;SDS011;71061;55.714;37.794;2023-08-08T02:26:43;5.65;;;2.75;;
81651;SDS011;71061;55.714;37.794;2023-08-08T02:29:09;5.53;;;2.97;;
81651;SDS011;71061;55.714;37.794;2023-08-08T02:31:35;5.65;;;3.03;;
81651;SDS011;71061;55.714;37.794;2023-08-08T02:34:01;7.97;;;2.50;;
81651;SDS011;71061;55.714;37.794;2023-08-08T02:36:27;6.40;;;2.58;;
81651;SDS011;71061;55.714;37.794;2023-08-08T02:38:52;6.13;;;2.88;;
81651;SDS011;71061;55.714;37.794;2023-08-08T02:41:19;4.97;;;2.67;;
81651;SDS011;71061;55.714;37.794;2023-08-08T02:43:46;5.20;;;2.90;;
81651;SDS011;71061;55.714;37.794;2023-08-08T02:46:13;5.70;;;3.22;;
81651;SDS011;71061;55.714;37.794;2023-08-08T02:48:39;4.68;;;3.38;;
81651;SDS011;71061;55.714;37.794;2023-08-08T02:51:06;5.15;;;3.10;;
81651;SDS011;71061;55.714;37.794;2023-08-08T02:53:33;5.25;;;2.97;;
81651;SDS011;71061;55.714;37.794;2023-08-08T02:55:58;5.57;;;2.65;;
81651;SDS011;71061;55.714;37.794;2023-08-08T02:58:28;6.60;;;3.05;;
81651;SDS011;71061;55.714;37.794;2023-08-08T03:00:55;7.72;;;3.05;;
81651;SDS011;71061;55.714;37.794;2023-08-08T03:03:21;6.28;;;3.08;;
81651;SDS011;71061;55.714;37.794;2023-08-08T03:05:47;5.65;;;2.45;;
81651;SDS011;71061;55.714;37.794;2023-08-08T03:08:15;6.85;;;2.67;;
81651;SDS011;71061;55.714;37.794;2023-08-08T03:10:40;7.50;;;3.08;;
81651;SDS011;71061;55.714;37.794;2023-08-08T03:13:07;5.50;;;3.03;;
81651;SDS011;71061;55.714;37.794;2023-08-08T03:15:32;7.28;;;2.95;;
81651;SDS011;71061;55.714;37.794;2023-08-08T03:17:59;5.28;;;2.80;;
81651;SDS011;71061;55.714;37.794;2023-08-08T03:20:25;6.15;;;3.13;;
81651;SDS011;71061;55.714;37.794;2023-08-08T03:22:50;7.80;;;3.30;;
81651;SDS011;71061;55.714;37.794;2023-08-08T03:25:16;10.38;;;3.70;;
81651;SDS011;71061;55.714;37.794;2023-08-08T03:27:42;6.60;;;2.72;;
81651;SDS011;71061;55.714;37.794;2023-08-08T03:30:10;7.22;;;3.35;;
81651;SDS011;71061;55.714;37.794;2023-08-08T03:32:40;7.38;;;3.22;;
81651;SDS011;71061;55.714;37.794;2023-08-08T03:35:06;5.20;;;3.42;;
81651;SDS011;71061;55.714;37.794;2023-08-08T03:37:34;4.78;;;2.83;;
81651;SDS011;71061;55.714;37.794;2023-08-08T03:40:00;5.82;;;4.25;;
81651;SDS011;71061;55.714;37.794;2023-08-08T03:42:26;5.10;;;3.70;;
81651;SDS011;71061;55.714;37.794;2023-08-08T03:44:51;7.47;;;4.10;;
81651;SDS011;71061;55.714;37.794;2023-08-08T03:47:17;6.82;;;3.47;;
81651;SDS011;71061;55.714;37.794;2023-08-08T03:49:43;8.02;;;3.33;;
81651;SDS011;71061;55.714;37.794;2023-08-08T03:52:08;6.25;;;3.33;;
81651;SDS011;71061;55.714;37.794;2023-08-08T03:54:34;8.45;;;3.97;;
81651;SDS011;71061;55.714;37.794;2023-08-08T03:57:00;8.80;;;3.97;;
81651;SDS011;71061;55.714;37.794;2023-08-08T03:59:26;7.75;;;4.05;;
81651;SDS011;71061;55.714;37.794;2023-08-08T04:01:52;5.80;;;3.58;;
81651;SDS011;71061;55.714;37.794;2023-08-08T04:04:18;5.88;;;3.20;;
81651;SDS011;71061;55.714;37.794;2023-08-08T04:06:43;5.35;;;3.38;;
81651;SDS011;71061;55.714;37.794;2023-08-08T04:09:09;7.03;;;3.47;;
81651;SDS011;71061;55.714;37.794;2023-08-08T04:11:35;8.77;;;4.90;;
81651;SDS011;71061;55.714;37.794;2023-08-08T04:14:01;9.52;;;3.97;;
81651;SDS011;71061;55.714;37.794;2023-08-08T04:16:27;6.88;;;3.90;;
81651;SDS011;71061;55.714;37.794;2023-08-08T04:18:53;7.82;;;3.65;;
81651;SDS011;71061;55.714;37.794;2023-08-08T04:21:19;8.90;;;3.90;;
81651;SDS011;71061;55.714;37.794;2023-08-08T04:23:45;8.27;;;4.32;;
81651;SDS011;71061;55.714;37.794;2023-08-08T04:26:10;7.97;;;4.53;;
81651;SDS011;71061;55.714;37.794;2023-08-08T04:28:36;9.13;;;3.92;;
81651;SDS011;71061;55.714;37.794;2023-08-08T04:31:01;11.60;;;4.28;;
81651;SDS011;71061;55.714;37.794;2023-08-08T04:33:27;7.80;;;4.25;;
81651;SDS011;71061;55.714;37.794;2023-08-08T04:35:53;9.80;;;5.47;;
81651;SDS011;71061;55.714;37.794;2023-08-08T04:38:19;7.18;;;4.43;;
81651;SDS011;71061;55.714;37.794;2023-08-08T04:40:44;10.45;;;4.10;;
81651;SDS011;71061;55.714;37.794;2023-08-08T04:43:10;5.75;;;3.75;;
81651;SDS011;71061;55.714;37.794;2023-08-08T04:45:35;7.85;;;4.70;;
81651;SDS011;71061;55.714;37.794;2023-08-08T04:48:01;7.05;;;4.68;;
81651;SDS011;71061;55.714;37.794;2023-08-08T04:50:27;5.97;;;3.45;;
81651;SDS011;71061;55.714;37.794;2023-08-08T04:52:53;10.10;;;4.47;;
81651;SDS011;71061;55.714;37.794;2023-08-08T04:55:19;8.70;;;4.30;;
81651;SDS011;71061;55.714;37.794;2023-08-08T04:57:45;9.48;;;4.65;;
81651;SDS011;71061;55.714;37.794;2023-08-08T05:00:10;12.98;;;5.38;;
81651;SDS011;71061;55.714;37.794;2023-08-08T05:02:37;8.27;;;3.75;;
81651;SDS011;71061;55.714;37.794;2023-08-08T05:05:04;7.35;;;4.20;;
81651;SDS011;71061;55.714;37.794;2023-08-08T05:07:30;8.07;;;3.97;;
81651;SDS011;71061;55.714;37.794;2023-08-08T05:09:56;10.95;;;4.60;;
81651;SDS011;71061;55.714;37.794;2023-08-08T05:12:22;9.85;;;5.20;;
81651;SDS011;71061;55.714;37.794;2023-08-08T05:14:47;10.15;;;5.20;;
81651;SDS011;71061;55.714;37.794;2023-08-08T05:17:13;6.78;;;4.65;;
81651;SDS011;71061;55.714;37.794;2023-08-08T05:19:39;7.45;;;5.32;;
81651;SDS011;71061;55.714;37.794;2023-08-08T05:22:05;8.63;;;4.85;;
81651;SDS011;71061;55.714;37.794;2023-08-08T05:24:31;8.75;;;4.20;;
81651;SDS011;71061;55.714;37.794;2023-08-08T05:26:56;9.88;;;4.90;;
81651;SDS011;71061;55.714;37.794;2023-08-08T05:29:22;9.68;;;5.38;;
81651;SDS011;71061;55.714;37.794;2023-08-08T05:31:48;8.73;;;5.85;;
81651;SDS011;71061;55.714;37.794;2023-08-08T05:34:14;10.30;;;5.07;;
81651;SDS011;71061;55.714;37.794;2023-08-08T05:36:40;7.15;;;4.05;;
81651;SDS011;71061;55.714;37.794;2023-08-08T05:39:05;7.97;;;4.35;;
81651;SDS011;71061;55.714;37.794;2023-08-08T05:41:33;6.13;;;3.90;;
81651;SDS011;71061;55.714;37.794;2023-08-08T05:43:58;7.50;;;3.45;;
81651;SDS011;71061;55.714;37.794;2023-08-08T05:46:24;11.05;;;4.47;;
81651;SDS011;71061;55.714;37.794;2023-08-08T05:48:50;10.18;;;4.22;;
81651;SDS011;71061;55.714;37.794;2023-08-08T05:51:15;8.65;;;3.70;;
81651;SDS011;71061;55.714;37.794;2023-08-08T05:53:41;12.75;;;4.10;;
81651;SDS011;71061;55.714;37.794;2023-08-08T05:56:07;8.23;;;4.15;;
81651;SDS011;71061;55.714;37.794;2023-08-08T05:58:34;10.32;;;5.05;;
81651;SDS011;71061;55.714;37.794;2023-08-08T06:01:00;7.68;;;3.72;;
81651;SDS011;71061;55.714;37.794;2023-08-08T06:03:25;6.30;;;3.30;;
81651;SDS011;71061;55.714;37.794;2023-08-08T06:05:51;6.10;;;3.72;;
81651;SDS011;71061;55.714;37.794;2023-08-08T06:08:16;7.20;;;4.05;;
81651;SDS011;71061;55.714;37.794;2023-08-08T06:10:42;7.60;;;4.13;;
81651;SDS011;71061;55.714;37.794;2023-08-08T06:13:08;7.03;;;4.43;;
81651;SDS011;71061;55.714;37.794;2023-08-08T06:15:34;8.32;;;4.75;;
81651;SDS011;71061;55.714;37.794;2023-08-08T06:17:59;8.98;;;4.57;;
81651;SDS011;71061;55.714;37.794;2023-08-08T06:20:25;8.27;;;4.45;;
81651;SDS011;71061;55.714;37.794;2023-08-08T06:22:51;8.60;;;4.13;;
81651;SDS011;71061;55.714;37.794;2023-08-08T06:25:17;10.70;;;4.15;;
81651;SDS011;71061;55.714;37.794;2023-08-08T06:27:42;11.48;;;4.97;;
81651;SDS011;71061;55.714;37.794;2023-08-08T06:30:08;7.82;;;4.20;;
81651;SDS011;71061;55.714;37.794;2023-08-08T06:32:34;8.85;;;4.35;;
81651;SDS011;71061;55.714;37.794;2023-08-08T06:34:59;9.23;;;4.18;;
81651;SDS011;71061;55.714;37.794;2023-08-08T06:37:25;7.68;;;4.78;;
81651;SDS011;71061;55.714;37.794;2023-08-08T06:39:51;8.27;;;4.43;;
81651;SDS011;71061;55.714;37.794;2023-08-08T06:42:16;8.80;;;4.90;;
81651;SDS011;71061;55.714;37.794;2023-08-08T06:44:53;8.88;;;5.50;;
81651;SDS011;71061;55.714;37.794;2023-08-08T06:47:18;8.95;;;4.95;;
81651;SDS011;71061;55.714;37.794;2023-08-08T06:49:44;9.43;;;4.43;;
81651;SDS011;71061;55.714;37.794;2023-08-08T06:52:10;8.77;;;5.80;;
81651;SDS011;71061;55.714;37.794;2023-08-08T06:54:35;10.00;;;5.00;;
81651;SDS011;71061;55.714;37.794;2023-08-08T06:57:01;8.80;;;4.95;;
81651;SDS011;71061;55.714;37.794;2023-08-08T06:59:27;9.75;;;5.50;;
81651;SDS011;71061;55.714;37.794;2023-08-08T07:01:53;11.05;;;6.07;;
81651;SDS011;71061;55.714;37.794;2023-08-08T07:04:19;12.70;;;6.00;;
81651;SDS011;71061;55.714;37.794;2023-08-08T07:06:44;12.23;;;5.25;;
81651;SDS011;71061;55.714;37.794;2023-08-08T07:09:10;9.02;;;5.03;;
81651;SDS011;71061;55.714;37.794;2023-08-08T07:11:37;10.48;;;5.10;;
81651;SDS011;71061;55.714;37.794;2023-08-08T07:14:03;12.07;;;5.80;;
81651;SDS011;71061;55.714;37.794;2023-08-08T07:16:29;12.93;;;5.82;;
81651;SDS011;71061;55.714;37.794;2023-08-08T07:18:54;9.10;;;5.60;;
81651;SDS011;71061;55.714;37.794;2023-08-08T07:21:20;9.75;;;4.82;;
81651;SDS011;71061;55.714;37.794;2023-08-08T07:23:46;11.40;;;6.18;;
81651;SDS011;71061;55.714;37.794;2023-08-08T07:26:12;10.80;;;4.80;;
81651;SDS011;71061;55.714;37.794;2023-08-08T07:28:38;10.85;;;5.13;;
81651;SDS011;71061;55.714;37.794;2023-08-08T07:31:04;9.40;;;4.70;;
81651;SDS011;71061;55.714;37.794;2023-08-08T07:33:30;8.60;;;4.65;;
81651;SDS011;71061;55.714;37.794;2023-08-08T07:35:56;8.35;;;4.40;;
81651;SDS011;71061;55.714;37.794;2023-08-08T07:38:22;11.25;;;5.88;;
81651;SDS011;71061;55.714;37.794;2023-08-08T07:40:47;9.02;;;4.93;;
81651;SDS011;71061;55.714;37.794;2023-08-08T07:43:14;9.43;;;5.82;;
81651;SDS011;71061;55.714;37.794;2023-08-08T07:45:40;13.30;;;5.43;;
81651;SDS011;71061;55.714;37.794;2023-08-08T07:48:08;10.63;;;5.63;;
81651;SDS011;71061;55.714;37.794;2023-08-08T07:50:33;10.13;;;5.68;;
81651;SDS011;71061;55.714;37.794;2023-08-08T07:52:59;15.70;;;6.40;;
81651;SDS011;71061;55.714;37.794;2023-08-08T07:55:25;12.05;;;6.88;;
81651;SDS011;71061;55.714;37.794;2023-08-08T07:57:51;13.95;;;7.15;;
81651;SDS011;71061;55.714;37.794;2023-08-08T08:00:17;13.27;;;7.75;;
81651;SDS011;71061;55.714;37.794;2023-08-08T08:02:44;10.60;;;6.28;;
81651;SDS011;71061;55.714;37.794;2023-08-08T08:05:12;11.25;;;6.75;;
81651;SDS011;71061;55.714;37.794;2023-08-08T08:07:39;12.73;;;7.22;;
81651;SDS011;71061;55.714;37.794;2023-08-08T08:10:06;15.10;;;7.82;;
81651;SDS011;71061;55.714;37.794;2023-08-08T08:12:34;12.93;;;6.43;;
81651;SDS011;71061;55.714;37.794;2023-08-08T08:15:00;11.43;;;7.07;;
81651;SDS011;71061;55.714;37.794;2023-08-08T08:17:26;12.52;;;7.38;;
81651;SDS011;71061;55.714;37.794;2023-08-08T08:19:53;14.18;;;7.97;;
81651;SDS011;71061;55.714;37.794;2023-08-08T08:22:19;14.93;;;7.85;;
81651;SDS011;71061;55.714;37.794;2023-08-08T08:24:45;12.35;;;8.00;;
81651;SDS011;71061;55.714;37.794;2023-08-08T08:27:11;12.35;;;8.65;;
81651;SDS011;71061;55.714;37.794;2023-08-08T08:29:37;12.35;;;7.18;;
81651;SDS011;71061;55.714;37.794;2023-08-08T08:32:04;14.30;;;10.95;;
81651;SDS011;71061;55.714;37.794;2023-08-08T08:34:30;12.77;;;8.77;;
81651;SDS011;71061;55.714;37.794;2023-08-08T08:36:55;15.52;;;8.23;;
81651;SDS011;71061;55.714;37.794;2023-08-08T08:39:21;13.25;;;8.10;;
81651;SDS011;71061;55.714;37.794;2023-08-08T08:41:48;12.80;;;8.13;;
81651;SDS011;71061;55.714;37.794;2023-08-08T08:44:16;14.55;;;8.27;;
81651;SDS011;71061;55.714;37.794;2023-08-08T08:46:42;14.88;;;8.95;;
81651;SDS011;71061;55.714;37.794;2023-08-08T08:49:08;12.80;;;7.78;;
81651;SDS011;71061;55.714;37.794;2023-08-08T08:51:35;14.35;;;8.32;;
81651;SDS011;71061;55.714;37.794;2023-08-08T08:54:02;16.92;;;8.65;;
81651;SDS011;71061;55.714;37.794;2023-08-08T08:56:27;15.63;;;8.38;;
81651;SDS011;71061;55.714;37.794;2023-08-08T08:58:53;12.00;;;8.30;;
81651;SDS011;71061;55.714;37.794;2023-08-08T09:01:19;14.40;;;8.80;;
81651;SDS011;71061;55.714;37.794;2023-08-08T09:03:47;16.67;;;8.73;;
81651;SDS011;71061;55.714;37.794;2023-08-08T09:06:13;13.07;;;9.15;;
81651;SDS011;71061;55.714;37.794;2023-08-08T09:08:41;12.90;;;7.80;;
81651;SDS011;71061;55.714;37.794;2023-08-08T09:11:07;13.25;;;7.45;;
81651;SDS011;71061;55.714;37.794;2023-08-08T09:13:36;13.23;;;8.43;;
81651;SDS011;71061;55.714;37.794;2023-08-08T09:16:04;15.27;;;10.70;;
81651;SDS011;71061;55.714;37.794;2023-08-08T09:18:31;11.52;;;7.75;;
81651;SDS011;71061;55.714;37.794;2023-08-08T09:20:58;14.32;;;9.25;;
81651;SDS011;71061;55.714;37.794;2023-08-08T09:23:23;15.45;;;9.15;;
81651;SDS011;71061;55.714;37.794;2023-08-08T09:25:49;11.70;;;7.93;;
81651;SDS011;71061;55.714;37.794;2023-08-08T09:28:15;13.57;;;9.15;;
81651;SDS011;71061;55.714;37.794;2023-08-08T09:30:41;12.50;;;8.23;;
81651;SDS011;71061;55.714;37.794;2023-08-08T09:33:07;11.77;;;8.68;;
81651;SDS011;71061;55.714;37.794;2023-08-08T09:35:33;15.45;;;8.90;;
81651;SDS011;71061;55.714;37.794;2023-08-08T09:37:59;17.90;;;9.27;;
81651;SDS011;71061;55.714;37.794;2023-08-08T09:40:25;12.80;;;8.38;;
81651;SDS011;71061;55.714;37.794;2023-08-08T09:42:51;15.35;;;8.10;;
81651;SDS011;71061;55.714;37.794;2023-08-08T09:45:17;15.40;;;8.85;;
81651;SDS011;71061;55.714;37.794;2023-08-08T09:47:43;15.73;;;8.45;;
81651;SDS011;71061;55.714;37.794;2023-08-08T09:50:09;14.13;;;8.55;;
81651;SDS011;71061;55.714;37.794;2023-08-08T09:52:34;16.90;;;8.48;;
81651;SDS011;71061;55.714;37.794;2023-08-08T09:55:01;18.63;;;8.98;;
81651;SDS011;71061;55.714;37.794;2023-08-08T09:57:31;12.85;;;8.43;;
81651;SDS011;71061;55.714;37.794;2023-08-08T09:59:57;11.88;;;7.90;;
81651;SDS011;71061;55.714;37.794;2023-08-08T10:02:24;17.88;;;8.27;;
81651;SDS011;71061;55.714;37.794;2023-08-08T10:04:50;15.90;;;8.57;;
81651;SDS011;71061;55.714;37.794;2023-08-08T10:07:16;13.60;;;8.73;;
81651;SDS011;71061;55.714;37.794;2023-08-08T10:09:42;13.63;;;9.63;;
81651;SDS011;71061;55.714;37.794;2023-08-08T10:12:07;12.30;;;8.45;;
81651;SDS011;71061;55.714;37.794;2023-08-08T10:14:35;17.85;;;10.55;;
81651;SDS011;71061;55.714;37.794;2023-08-08T10:17:02;12.60;;;7.97;;
81651;SDS011;71061;55.714;37.794;2023-08-08T10:19:29;13.98;;;9.57;;
81651;SDS011;71061;55.714;37.794;2023-08-08T10:21:58;14.88;;;9.15;;
81651;SDS011;71061;55.714;37.794;2023-08-08T10:24:33;16.02;;;8.77;;
81651;SDS011;71061;55.714;37.794;2023-08-08T10:27:01;14.05;;;9.25;;
81651;SDS011;71061;55.714;37.794;2023-08-08T10:29:28;13.68;;;9.15;;
81651;SDS011;71061;55.714;37.794;2023-08-08T10:31:58;13.45;;;8.98;;
81651;SDS011;71061;55.714;37.794;2023-08-08T10:34:27;13.70;;;8.82;;
81651;SDS011;71061;55.714;37.794;2023-08-08T10:37:03;13.63;;;9.88;;
81651;SDS011;71061;55.714;37.794;2023-08-08T10:39:30;12.05;;;9.35;;
81651;SDS011;71061;55.714;37.794;2023-08-08T10:41:59;14.20;;;8.80;;
81651;SDS011;71061;55.714;37.794;2023-08-08T10:44:26;17.40;;;9.35;;
81651;SDS011;71061;55.714;37.794;2023-08-08T10:46:52;12.90;;;9.13;;
81651;SDS011;71061;55.714;37.794;2023-08-08T10:49:20;17.60;;;10.45;;
81651;SDS011;71061;55.714;37.794;2023-08-08T10:51:47;15.40;;;9.75;;
81651;SDS011;71061;55.714;37.794;2023-08-08T10:54:18;14.00;;;10.63;;
81651;SDS011;71061;55.714;37.794;2023-08-08T10:56:47;15.90;;;11.32;;
81651;SDS011;71061;55.714;37.794;2023-08-08T11:01:44;18.58;;;10.38;;
81651;SDS011;71061;55.714;37.794;2023-08-08T11:04:11;14.73;;;9.77;;
81651;SDS011;71061;55.714;37.794;2023-08-08T11:06:37;16.08;;;10.27;;
81651;SDS011;71061;55.714;37.794;2023-08-08T11:09:05;17.05;;;10.15;;
81651;SDS011;71061;55.714;37.794;2023-08-08T11:11:39;16.13;;;10.50;;
81651;SDS011;71061;55.714;37.794;2023-08-08T11:14:09;18.25;;;9.48;;
81651;SDS011;71061;55.714;37.794;2023-08-08T11:16:37;14.13;;;9.68;;
81651;SDS011;71061;55.714;37.794;2023-08-08T11:19:03;16.08;;;10.90;;
81651;SDS011;71061;55.714;37.794;2023-08-08T11:21:29;19.10;;;12.57;;
81651;SDS011;71061;55.714;37.794;2023-08-08T11:23:55;17.08;;;12.18;;
81651;SDS011;71061;55.714;37.794;2023-08-08T11:26:20;14.23;;;10.68;;
81651;SDS011;71061;55.714;37.794;2023-08-08T11:28:53;14.60;;;9.23;;
81651;SDS011;71061;55.714;37.794;2023-08-08T11:31:20;14.50;;;9.77;;
81651;SDS011;71061;55.714;37.794;2023-08-08T11:33:47;22.65;;;10.20;;
81651;SDS011;71061;55.714;37.794;2023-08-08T11:36:14;14.38;;;9.45;;
81651;SDS011;71061;55.714;37.794;2023-08-08T11:38:40;14.95;;;9.77;;
81651;SDS011;71061;55.714;37.794;2023-08-08T11:41:09;20.10;;;7.97;;
81651;SDS011;71061;55.714;37.794;2023-08-08T11:43:36;10.60;;;8.60;;
81651;SDS011;71061;55.714;37.794;2023-08-08T11:46:03;17.98;;;10.20;;
81651;SDS011;71061;55.714;37.794;2023-08-08T11:48:32;13.25;;;9.05;;
81651;SDS011;71061;55.714;37.794;2023-08-08T11:50:58;10.70;;;7.75;;
81651;SDS011;71061;55.714;37.794;2023-08-08T11:53:23;16.45;;;8.95;;
81651;SDS011;71061;55.714;37.794;2023-08-08T11:55:49;11.70;;;7.78;;
81651;SDS011;71061;55.714;37.794;2023-08-08T11:58:15;16.27;;;7.82;;
81651;SDS011;71061;55.714;37.794;2023-08-08T12:00:43;12.48;;;7.95;;
81651;SDS011;71061;55.714;37.794;2023-08-08T12:03:12;13.90;;;8.60;;
81651;SDS011;71061;55.714;37.794;2023-08-08T12:05:39;13.25;;;7.57;;
81651;SDS011;71061;55.714;37.794;2023-08-08T12:08:05;13.82;;;8.88;;
81651;SDS011;71061;55.714;37.794;2023-08-08T12:10:32;19.88;;;8.57;;
81651;SDS011;71061;55.714;37.794;2023-08-08T12:12:57;12.95;;;8.27;;
81651;SDS011;71061;55.714;37.794;2023-08-08T12:15:29;15.00;;;7.78;;
81651;SDS011;71061;55.714;37.794;2023-08-08T12:17:57;11.52;;;8.52;;
81651;SDS011;71061;55.714;37.794;2023-08-08T12:20:26;13.13;;;6.57;;
81651;SDS011;71061;55.714;37.794;2023-08-08T12:22:53;14.07;;;7.63;;
81651;SDS011;71061;55.714;37.794;2023-08-08T12:25:19;12.13;;;6.85;;
81651;SDS011;71061;55.714;37.794;2023-08-08T12:27:44;10.73;;;7.10;;
81651;SDS011;71061;55.714;37.794;2023-08-08T12:30:10;15.23;;;6.55;;
81651;SDS011;71061;55.714;37.794;2023-08-08T12:32:36;13.40;;;7.47;;
81651;SDS011;71061;55.714;37.794;2023-08-08T12:35:02;13.05;;;6.95;;
81651;SDS011;71061;55.714;37.794;2023-08-08T12:37:30;13.10;;;6.70;;
81651;SDS011;71061;55.714;37.794;2023-08-08T12:39:56;9.60;;;7.07;;
81651;SDS011;71061;55.714;37.794;2023-08-08T12:42:22;12.90;;;8.10;;
81651;SDS011;71061;55.714;37.794;2023-08-08T12:44:47;16.08;;;7.65;;
81651;SDS011;71061;55.714;37.794;2023-08-08T12:47:17;20.15;;;7.07;;
81651;SDS011;71061;55.714;37.794;2023-08-08T12:49:43;13.68;;;6.78;;
81651;SDS011;71061;55.714;37.794;2023-08-08T12:52:09;14.20;;;7.25;;
81651;SDS011;71061;55.714;37.794;2023-08-08T12:54:35;14.05;;;8.15;;
81651;SDS011;71061;55.714;37.794;2023-08-08T12:57:01;13.32;;;6.80;;
81651;SDS011;71061;55.714;37.794;2023-08-08T12:59:28;15.18;;;7.95;;
81651;SDS011;71061;55.714;37.794;2023-08-08T13:01:53;11.30;;;6.93;;
81651;SDS011;71061;55.714;37.794;2023-08-08T13:04:19;9.95;;;6.72;;
81651;SDS011;71061;55.714;37.794;2023-08-08T13:06:46;12.48;;;7.00;;
81651;SDS011;71061;55.714;37.794;2023-08-08T13:09:13;8.25;;;6.30;;
81651;SDS011;71061;55.714;37.794;2023-08-08T13:11:39;8.55;;;5.55;;
81651;SDS011;71061;55.714;37.794;2023-08-08T13:14:04;11.00;;;6.47;;
81651;SDS011;71061;55.714;37.794;2023-08-08T13:16:30;10.13;;;6.68;;
81651;SDS011;71061;55.714;37.794;2023-08-08T13:18:55;16.77;;;8.07;;
81651;SDS011;71061;55.714;37.794;2023-08-08T13:21:21;13.45;;;8.07;;
81651;SDS011;71061;55.714;37.794;2023-08-08T13:23:47;12.98;;;8.13;;
81651;SDS011;71061;55.714;37.794;2023-08-08T13:26:12;14.40;;;7.40;;
81651;SDS011;71061;55.714;37.794;2023-08-08T13:28:38;14.52;;;8.10;;
81651;SDS011;71061;55.714;37.794;2023-08-08T13:31:04;14.15;;;8.10;;
81651;SDS011;71061;55.714;37.794;2023-08-08T13:33:32;11.93;;;8.90;;
81651;SDS011;71061;55.714;37.794;2023-08-08T13:35:57;12.93;;;8.02;;
81651;SDS011;71061;55.714;37.794;2023-08-08T13:38:23;13.10;;;8.25;;
81651;SDS011;71061;55.714;37.794;2023-08-08T13:40:49;13.30;;;8.18;;
81651;SDS011;71061;55.714;37.794;2023-08-08T13:43:15;14.60;;;8.95;;
81651;SDS011;71061;55.714;37.794;2023-08-08T13:45:41;17.02;;;10.40;;
81651;SDS011;71061;55.714;37.794;2023-08-08T13:48:07;14.02;;;8.65;;
81651;SDS011;71061;55.714;37.794;2023-08-08T13:50:32;13.77;;;7.95;;
81651;SDS011;71061;55.714;37.794;2023-08-08T13:52:58;13.30;;;9.07;;
81651;SDS011;71061;55.714;37.794;2023-08-08T13:55:24;20.63;;;8.45;;
81651;SDS011;71061;55.714;37.794;2023-08-08T13:57:52;16.00;;;8.30;;
81651;SDS011;71061;55.714;37.794;2023-08-08T14:00:20;14.43;;;9.38;;
81651;SDS011;71061;55.714;37.794;2023-08-08T14:02:47;15.57;;;8.43;;
81651;SDS011;71061;55.714;37.794;2023-08-08T14:05:13;21.58;;;10.82;;
81651;SDS011;71061;55.714;37.794;2023-08-08T14:07:39;16.80;;;10.23;;
81651;SDS011;71061;55.714;37.794;2023-08-08T14:10:05;19.63;;;10.23;;
81651;SDS011;71061;55.714;37.794;2023-08-08T14:12:31;18.73;;;10.55;;
81651;SDS011;71061;55.714;37.794;2023-08-08T14:14:56;19.15;;;10.80;;
81651;SDS011;71061;55.714;37.794;2023-08-08T14:17:22;22.45;;;11.85;;
81651;SDS011;71061;55.714;37.794;2023-08-08T14:19:48;21.35;;;11.20;;
81651;SDS011;71061;55.714;37.794;2023-08-08T14:22:14;14.70;;;9.77;;
81651;SDS011;71061;55.714;37.794;2023-08-08T14:24:40;15.27;;;9.88;;